createdAt,value
2019-03-12T00:00:06.578Z,1.70
2019-03-12T00:02:36.083Z,1.23
2019-03-12T00:05:05.941Z,1.90
2019-03-12T00:07:35.258Z,1.40
2019-03-12T00:10:05.003Z,1.60
2019-03-12T00:12:34.255Z,1.33
2019-03-12T00:15:03.599Z,1.50
2019-03-12T00:17:32.931Z,1.70
2019-03-12T00:20:02.214Z,1.30
2019-03-12T00:22:31.505Z,1.53
2019-03-12T00:25:00.820Z,1.20
2019-03-12T00:27:30.146Z,1.40
2019-03-12T00:29:59.550Z,1.70
2019-03-12T00:32:28.819Z,1.53
2019-03-12T00:34:58.088Z,1.73
2019-03-12T00:37:27.445Z,1.37
2019-03-12T00:39:56.821Z,1.53
2019-03-12T00:42:26.105Z,1.60
2019-03-12T00:44:55.437Z,1.50
2019-03-12T00:47:24.730Z,1.20
2019-03-12T00:49:54.003Z,1.50
2019-03-12T00:52:23.602Z,1.47
2019-03-12T00:54:52.890Z,1.37
2019-03-12T00:57:22.176Z,1.10
2019-03-12T00:59:51.510Z,1.47
2019-03-12T01:02:20.822Z,1.60
2019-03-12T01:04:50.284Z,1.40
2019-03-12T01:07:19.636Z,1.50
2019-03-12T01:09:48.901Z,1.63
2019-03-12T01:12:18.199Z,1.30
2019-03-12T01:14:47.518Z,1.70
2019-03-12T01:17:16.849Z,1.50
2019-03-12T01:19:46.144Z,1.40
2019-03-12T01:22:15.434Z,1.47
2019-03-12T01:24:44.732Z,1.53
2019-03-12T01:27:14.142Z,1.33
2019-03-12T01:29:43.532Z,1.53
2019-03-12T01:32:12.931Z,1.60
2019-03-12T01:34:42.428Z,1.57
2019-03-12T01:37:11.702Z,1.33
2019-03-12T01:39:41.005Z,1.27
2019-03-12T01:42:10.509Z,1.20
2019-03-12T01:44:39.817Z,1.10
2019-03-12T01:47:09.225Z,1.27
2019-03-12T01:49:38.544Z,1.53
2019-03-12T01:52:07.893Z,1.13
2019-03-12T01:54:37.275Z,1.33
2019-03-12T01:57:06.591Z,1.67
2019-03-12T01:59:35.880Z,1.30
2019-03-12T02:02:05.202Z,1.10
2019-03-12T02:04:34.518Z,1.37
2019-03-12T02:07:03.818Z,1.30
2019-03-12T02:09:33.265Z,1.40
2019-03-12T02:12:02.612Z,1.30
2019-03-12T02:14:31.914Z,1.43
2019-03-12T02:17:01.295Z,1.30
2019-03-12T02:19:30.655Z,1.50
2019-03-12T02:21:59.944Z,1.67
2019-03-12T02:24:29.240Z,1.50
2019-03-12T02:26:58.555Z,1.30
2019-03-12T02:29:27.826Z,1.63
2019-03-12T02:31:57.168Z,1.60
2019-03-12T02:34:26.515Z,1.60
2019-03-12T02:36:55.780Z,1.50
2019-03-12T02:39:25.047Z,1.60
2019-03-12T02:41:54.350Z,1.47
2019-03-12T02:44:23.890Z,2.03
2019-03-12T02:46:53.163Z,1.70
2019-03-12T02:49:22.502Z,1.60
2019-03-12T02:51:51.771Z,1.40
2019-03-12T02:54:21.043Z,1.67
2019-03-12T02:56:50.400Z,1.97
2019-03-12T02:59:19.713Z,1.80
2019-03-12T03:01:48.984Z,1.20
2019-03-12T03:04:18.359Z,1.50
2019-03-12T03:07:01.126Z,1.53
2019-03-12T03:09:30.465Z,1.30
2019-03-12T03:11:59.717Z,1.43
2019-03-12T03:14:41.635Z,1.67
2019-03-12T03:17:14.385Z,1.50
2019-03-12T03:19:43.703Z,1.83
2019-03-12T03:22:13.062Z,1.57
2019-03-12T03:24:42.412Z,1.60
2019-03-12T03:27:11.718Z,1.37
2019-03-12T03:29:40.986Z,1.40
2019-03-12T03:32:10.353Z,1.20
2019-03-12T03:34:39.698Z,1.03
2019-03-12T03:37:08.944Z,1.10
2019-03-12T03:39:38.247Z,1.27
2019-03-12T03:42:07.691Z,1.00
2019-03-12T03:44:37.336Z,1.10
2019-03-12T03:47:06.627Z,1.00
2019-03-12T03:49:35.973Z,1.10
2019-03-12T03:52:05.218Z,1.20
2019-03-12T03:54:34.505Z,1.20
2019-03-12T03:57:03.867Z,1.30
2019-03-12T03:59:33.121Z,1.30
2019-03-12T04:02:02.372Z,1.17
2019-03-12T04:04:31.685Z,1.43
2019-03-12T04:07:01.068Z,1.40
2019-03-12T04:09:30.527Z,1.10
2019-03-12T04:11:59.855Z,1.27
2019-03-12T04:14:29.143Z,1.27
2019-03-12T04:16:58.587Z,1.30
2019-03-12T04:19:28.217Z,1.57
2019-03-12T04:21:57.515Z,1.03
2019-03-12T04:24:26.818Z,1.43
2019-03-12T04:26:56.318Z,1.40
2019-03-12T04:29:25.835Z,1.10
2019-03-12T04:31:55.200Z,1.20
2019-03-12T04:34:33.757Z,1.30
2019-03-12T04:37:03.068Z,1.40
2019-03-12T04:39:32.402Z,1.60
2019-03-12T04:42:01.693Z,1.50
2019-03-12T04:44:31.214Z,1.33
2019-03-12T04:47:00.690Z,1.70
2019-03-12T04:49:30.352Z,1.50
2019-03-12T04:51:59.654Z,1.40
2019-03-12T04:54:28.990Z,1.43
2019-03-12T04:56:58.324Z,1.80
2019-03-12T04:59:27.631Z,1.60
2019-03-12T05:01:56.886Z,1.13
2019-03-12T05:04:26.240Z,1.60
2019-03-12T05:06:55.583Z,1.70
2019-03-12T05:09:24.894Z,2.10
2019-03-12T05:11:54.215Z,1.73
2019-03-12T05:14:31.191Z,1.63
2019-03-12T05:17:11.884Z,1.60
2019-03-12T05:19:43.153Z,1.90
2019-03-12T05:22:12.516Z,1.57
2019-03-12T05:24:41.810Z,2.00
2019-03-12T05:27:11.146Z,2.10
2019-03-12T05:29:40.424Z,2.50
2019-03-12T05:32:09.691Z,2.00
2019-03-12T05:34:39.104Z,2.57
2019-03-12T05:37:08.427Z,2.03
2019-03-12T05:39:37.743Z,2.43
2019-03-12T05:42:07.017Z,2.50
2019-03-12T05:44:36.301Z,2.47
2019-03-12T05:47:08.185Z,2.63
2019-03-12T05:49:37.013Z,2.53
2019-03-12T05:52:06.296Z,2.60
2019-03-12T05:54:35.626Z,2.30
2019-03-12T05:57:04.930Z,2.57
2019-03-12T05:59:34.312Z,2.67
2019-03-12T06:02:03.658Z,2.70
2019-03-12T06:04:32.937Z,2.37
2019-03-12T06:07:02.243Z,2.83
2019-03-12T06:09:31.567Z,2.70
2019-03-12T06:12:00.884Z,2.43
2019-03-12T06:14:30.182Z,2.80
2019-03-12T06:16:59.550Z,2.60
2019-03-12T06:19:28.819Z,3.00
2019-03-12T06:21:58.130Z,4.00
2019-03-12T06:24:27.482Z,3.40
2019-03-12T06:26:56.935Z,3.13
2019-03-12T06:29:26.228Z,3.00
2019-03-12T06:32:17.547Z,2.67
2019-03-12T06:34:57.287Z,2.87
2019-03-12T06:37:57.725Z,2.77
2019-03-12T06:40:34.620Z,3.40
2019-03-12T06:43:26.176Z,3.23
2019-03-12T06:46:13.141Z,2.83
2019-03-12T06:49:01.642Z,3.17
2019-03-12T06:51:46.287Z,3.40
2019-03-12T06:54:33.119Z,2.90
2019-03-12T06:57:21.339Z,3.67
2019-03-12T07:00:21.535Z,3.37
2019-03-12T07:03:08.440Z,3.30
2019-03-12T07:05:50.361Z,3.17
2019-03-12T07:08:47.422Z,3.13
2019-03-12T07:11:34.152Z,3.60
2019-03-12T07:14:28.167Z,3.00
2019-03-12T07:17:04.561Z,3.57
2019-03-12T07:19:42.247Z,3.40
2019-03-12T07:22:33.513Z,3.13
2019-03-12T07:25:10.556Z,3.00
2019-03-12T07:27:48.209Z,3.30
2019-03-12T07:30:45.409Z,3.23
2019-03-12T07:33:42.827Z,3.60
2019-03-12T07:36:31.760Z,3.43
2019-03-12T07:39:31.834Z,3.83
2019-03-12T07:42:14.209Z,3.30
2019-03-12T07:45:05.537Z,3.63
2019-03-12T07:47:53.795Z,3.77
2019-03-12T07:50:39.097Z,3.83
2019-03-12T07:53:24.487Z,3.70
2019-03-12T07:56:11.287Z,3.50
2019-03-12T07:59:02.331Z,3.30
2019-03-12T08:01:40.664Z,3.40
2019-03-12T08:04:31.957Z,3.70
2019-03-12T08:07:18.987Z,3.60
2019-03-12T08:10:05.330Z,3.87
2019-03-12T08:12:56.389Z,3.20
2019-03-12T08:15:44.592Z,3.60
2019-03-12T08:18:27.204Z,4.20
2019-03-12T08:21:22.218Z,3.90
2019-03-12T08:23:52.754Z,3.50
2019-03-12T08:26:33.571Z,3.97
2019-03-12T08:29:20.298Z,3.37
2019-03-12T08:32:07.179Z,3.00
2019-03-12T08:34:44.170Z,3.30
2019-03-12T08:37:35.226Z,3.07
2019-03-12T08:40:23.727Z,3.50
2019-03-12T08:43:17.012Z,3.03
2019-03-12T08:46:03.655Z,3.70
2019-03-12T08:48:54.985Z,3.63
2019-03-12T08:51:49.375Z,3.30
2019-03-12T08:54:53.484Z,3.10
2019-03-12T08:57:36.245Z,3.07
2019-03-12T09:00:37.062Z,3.23
2019-03-12T09:03:34.484Z,3.63
2019-03-12T09:06:40.967Z,3.77
2019-03-12T09:09:35.202Z,4.13
2019-03-12T09:12:21.805Z,3.53
2019-03-12T09:15:08.526Z,3.90
2019-03-12T09:17:57.160Z,3.70
2019-03-12T09:20:36.156Z,3.50
2019-03-12T09:23:23.175Z,3.20
2019-03-12T09:26:17.269Z,3.43
2019-03-12T09:29:05.529Z,3.57
2019-03-12T09:31:40.061Z,3.17
2019-03-12T09:34:24.219Z,2.80
2019-03-12T09:37:14.287Z,3.03
2019-03-12T09:40:02.518Z,3.23
2019-03-12T09:42:56.819Z,3.00
2019-03-12T09:45:46.800Z,3.13
2019-03-12T09:48:39.501Z,3.27
2019-03-12T09:51:27.755Z,3.40
2019-03-12T09:54:13.011Z,3.50
2019-03-12T09:57:10.161Z,3.17
2019-03-12T09:59:58.405Z,3.63
2019-03-12T10:02:50.508Z,2.60
2019-03-12T10:05:37.945Z,2.73
2019-03-12T10:08:17.458Z,2.60
2019-03-12T10:11:11.585Z,3.27
2019-03-12T10:14:14.740Z,2.70
2019-03-12T10:17:02.967Z,3.10
2019-03-12T10:19:51.711Z,3.13
2019-03-12T10:22:38.668Z,3.20
2019-03-12T10:25:19.000Z,2.80
2019-03-12T10:28:25.227Z,2.90
2019-03-12T10:31:07.617Z,2.40
2019-03-12T10:33:54.629Z,2.50
2019-03-12T10:36:54.768Z,2.57
2019-03-12T10:40:08.018Z,1.90
2019-03-12T10:42:43.202Z,3.23
2019-03-12T10:45:25.489Z,1.90
2019-03-12T10:47:55.072Z,1.60
2019-03-12T10:50:24.468Z,1.63
2019-03-12T10:52:53.796Z,1.80
2019-03-12T10:55:23.083Z,1.73
2019-03-12T10:57:52.390Z,1.70
2019-03-12T11:00:21.803Z,1.67
2019-03-12T11:02:51.113Z,1.47
2019-03-12T11:05:20.528Z,1.20
2019-03-12T11:07:49.870Z,1.60
2019-03-12T11:10:19.387Z,1.70
2019-03-12T11:12:48.650Z,1.23
2019-03-12T11:15:18.269Z,1.70
2019-03-12T11:17:49.824Z,1.40
2019-03-12T11:20:18.744Z,1.17
2019-03-12T11:22:48.056Z,1.40
2019-03-12T11:25:26.342Z,1.50
2019-03-12T11:27:48.455Z,1.30
2019-03-12T11:30:17.989Z,1.23
2019-03-12T11:32:47.304Z,1.10
2019-03-12T11:35:16.584Z,1.30
2019-03-12T11:37:45.879Z,1.27
2019-03-12T11:40:17.377Z,1.03
2019-03-12T11:42:46.730Z,1.30
2019-03-12T11:45:19.090Z,0.90
2019-03-12T11:47:47.547Z,1.30
2019-03-12T11:50:18.508Z,1.00
2019-03-12T11:52:54.872Z,1.03
2019-03-12T11:55:18.811Z,1.10
2019-03-12T11:57:48.490Z,1.23
2019-03-12T12:00:31.814Z,0.90
2019-03-12T12:03:01.131Z,1.23
2019-03-12T12:05:30.443Z,1.10
2019-03-12T12:07:59.749Z,1.00
2019-03-12T12:10:29.103Z,1.00
2019-03-12T12:12:58.550Z,1.10
2019-03-12T12:15:27.977Z,1.07
2019-03-12T12:17:57.294Z,0.80
2019-03-12T12:20:30.016Z,1.00
2019-03-12T12:22:57.875Z,1.37
2019-03-12T12:25:27.162Z,0.80
2019-03-12T12:27:56.545Z,1.20
2019-03-12T12:30:25.884Z,0.80
2019-03-12T12:32:55.221Z,1.13
2019-03-12T12:35:24.558Z,1.07
2019-03-12T12:37:53.810Z,1.20
2019-03-12T12:40:23.643Z,1.17
2019-03-12T12:42:52.973Z,1.17
2019-03-12T12:45:23.166Z,1.17
2019-03-12T12:47:52.489Z,1.37
2019-03-12T12:50:21.892Z,2.63
2019-03-12T12:52:51.271Z,2.10
2019-03-12T12:55:20.579Z,1.90
2019-03-12T12:57:49.934Z,1.80
2019-03-12T13:00:20.423Z,1.20
2019-03-12T13:02:49.720Z,1.20
2019-03-12T13:05:19.158Z,1.17
2019-03-12T13:07:49.503Z,1.23
2019-03-12T13:10:23.422Z,1.73
2019-03-12T13:12:52.727Z,1.30
2019-03-12T13:15:22.191Z,1.40
2019-03-12T13:17:51.732Z,1.13
2019-03-12T13:20:21.116Z,1.20
2019-03-12T13:22:50.546Z,1.50
2019-03-12T13:25:19.869Z,2.00
2019-03-12T13:27:49.270Z,2.00
2019-03-12T13:30:19.334Z,1.83
2019-03-12T13:32:48.669Z,1.33
2019-03-12T13:35:18.143Z,1.30
2019-03-12T13:37:47.734Z,1.50
2019-03-12T13:40:17.665Z,1.80
2019-03-12T13:42:47.003Z,1.83
2019-03-12T13:45:17.443Z,1.87
2019-03-12T13:47:46.858Z,1.90
2019-03-12T13:50:16.781Z,2.10
2019-03-12T13:52:46.050Z,2.20
2019-03-12T13:55:15.690Z,1.70
2019-03-12T13:57:45.648Z,2.00
2019-03-12T14:00:17.223Z,2.10
2019-03-12T14:02:47.513Z,2.27
2019-03-12T14:05:17.067Z,2.03
2019-03-12T14:07:46.468Z,2.27
2019-03-12T14:10:18.007Z,2.27
2019-03-12T14:12:47.399Z,2.63
2019-03-12T14:15:23.116Z,2.37
2019-03-12T14:17:52.413Z,2.70
2019-03-12T14:21:04.218Z,2.47
2019-03-12T14:23:42.102Z,2.37
2019-03-12T14:26:12.636Z,2.90
2019-03-12T14:28:41.957Z,3.00
2019-03-12T14:31:11.206Z,3.47
2019-03-12T14:33:40.542Z,3.27
2019-03-12T14:36:09.883Z,3.27
2019-03-12T14:38:39.205Z,3.20
2019-03-12T14:41:08.638Z,3.00
2019-03-12T14:43:37.956Z,3.53
2019-03-12T14:46:07.253Z,3.10
2019-03-12T14:48:45.274Z,3.07
2019-03-12T14:51:32.686Z,3.40
2019-03-12T14:54:02.279Z,3.90
2019-03-12T14:56:32.212Z,4.40
2019-03-12T14:59:01.652Z,4.67
2019-03-12T15:01:30.917Z,5.17
2019-03-12T15:04:00.239Z,5.37
2019-03-12T15:06:29.706Z,5.20
2019-03-12T15:08:59.019Z,5.60
2019-03-12T15:11:28.316Z,6.00
2019-03-12T15:13:57.641Z,5.87
2019-03-12T15:16:27.209Z,6.40
2019-03-12T15:18:56.537Z,5.90
2019-03-12T15:21:25.876Z,6.10
2019-03-12T15:23:55.204Z,5.67
2019-03-12T15:26:24.465Z,5.40
2019-03-12T15:28:53.780Z,6.20
2019-03-12T15:31:23.112Z,5.73
2019-03-12T15:33:52.418Z,5.80
2019-03-12T15:36:21.698Z,6.00
2019-03-12T15:38:50.994Z,6.07
2019-03-12T15:41:20.350Z,6.93
2019-03-12T15:43:52.180Z,7.10
2019-03-12T15:46:21.479Z,6.90
2019-03-12T15:48:50.859Z,7.57
2019-03-12T15:51:21.216Z,7.00
2019-03-12T15:53:50.532Z,6.33
2019-03-12T15:56:19.838Z,7.27
2019-03-12T15:58:49.116Z,7.17
2019-03-12T16:01:18.389Z,6.70
2019-03-12T16:03:47.718Z,6.93
2019-03-12T16:06:17.224Z,7.63
2019-03-12T16:08:46.634Z,7.80
2019-03-12T16:11:15.924Z,7.57
2019-03-12T16:13:45.240Z,7.80
2019-03-12T16:16:14.565Z,8.03
2019-03-12T16:18:43.863Z,8.63
2019-03-12T16:21:13.345Z,8.00
2019-03-12T16:23:42.698Z,7.93
2019-03-12T16:26:12.009Z,8.17
2019-03-12T16:28:41.287Z,8.07
2019-03-12T16:31:10.648Z,8.17
2019-03-12T16:33:40.014Z,8.97
2019-03-12T16:36:09.296Z,8.90
2019-03-12T16:38:38.748Z,8.97
2019-03-12T16:41:08.077Z,10.40
2019-03-12T16:43:37.352Z,10.43
2019-03-12T16:46:06.709Z,10.60
2019-03-12T16:48:38.402Z,10.10
2019-03-12T16:51:07.048Z,10.57
2019-03-12T16:53:36.332Z,10.93
2019-03-12T16:56:05.999Z,10.00
2019-03-12T16:58:35.312Z,11.53
2019-03-12T17:01:04.623Z,11.00
2019-03-12T17:03:33.952Z,10.13
2019-03-12T17:06:03.504Z,10.40
2019-03-12T17:08:32.984Z,10.13
2019-03-12T17:11:03.151Z,10.77
2019-03-12T17:13:32.818Z,9.50
2019-03-12T17:16:02.173Z,9.10
2019-03-12T17:18:31.613Z,9.67
2019-03-12T17:21:01.321Z,9.90
2019-03-12T17:23:30.786Z,9.47
2019-03-12T17:26:00.091Z,8.77
2019-03-12T17:28:29.433Z,8.93
2019-03-12T17:30:58.817Z,8.63
2019-03-12T17:33:28.129Z,8.13
2019-03-12T17:35:57.444Z,8.60
2019-03-12T17:38:26.714Z,8.40
2019-03-12T17:40:56.298Z,9.13
2019-03-12T17:43:25.644Z,9.40
2019-03-12T17:45:54.975Z,9.40
2019-03-12T17:48:24.400Z,9.30
2019-03-12T17:50:53.764Z,8.97
2019-03-12T17:53:23.166Z,9.93
2019-03-12T17:55:52.448Z,9.13
2019-03-12T17:58:21.801Z,8.27
2019-03-12T18:00:51.232Z,8.77
2019-03-12T18:03:20.679Z,8.73
2019-03-12T18:05:49.971Z,7.90
2019-03-12T18:08:19.276Z,7.27
2019-03-12T18:10:48.624Z,7.97
2019-03-12T18:13:18.096Z,8.27
2019-03-12T18:15:47.477Z,7.43
2019-03-12T18:18:16.792Z,8.33
2019-03-12T18:20:46.088Z,7.37
2019-03-12T18:23:15.701Z,8.47
2019-03-12T18:25:45.212Z,7.97
2019-03-12T18:28:14.530Z,8.33
2019-03-12T18:30:43.794Z,8.03
2019-03-12T18:33:13.146Z,7.40
2019-03-12T18:35:42.438Z,7.73
2019-03-12T18:38:11.774Z,7.57
2019-03-12T18:40:41.234Z,8.20
2019-03-12T18:43:10.542Z,7.27
2019-03-12T18:45:39.860Z,7.00
2019-03-12T18:48:09.174Z,8.13
2019-03-12T18:50:38.523Z,7.10
2019-03-12T18:53:08.105Z,7.83
2019-03-12T18:55:46.706Z,7.93
2019-03-12T18:58:16.153Z,7.60
2019-03-12T19:00:48.626Z,7.40
2019-03-12T19:03:18.316Z,7.57
2019-03-12T19:05:47.618Z,8.23
2019-03-12T19:08:16.908Z,7.97
2019-03-12T19:10:46.346Z,10.30
2019-03-12T19:13:15.631Z,10.53
2019-03-12T19:15:44.983Z,17.10
2019-03-12T19:18:14.237Z,11.00
2019-03-12T19:20:43.565Z,13.57
2019-03-12T19:23:12.962Z,12.20
2019-03-12T19:25:42.687Z,9.37
2019-03-12T19:28:11.966Z,9.17
2019-03-12T19:30:41.335Z,8.20
2019-03-12T19:33:12.308Z,9.47
2019-03-12T19:35:41.567Z,9.73
2019-03-12T19:38:10.905Z,9.70
2019-03-12T19:40:40.554Z,8.87
2019-03-12T19:43:10.066Z,11.13
2019-03-12T19:45:39.524Z,13.60
2019-03-12T19:48:08.821Z,10.70
2019-03-12T19:50:38.277Z,10.23
2019-03-12T19:53:07.617Z,10.43
2019-03-12T19:55:39.637Z,9.53
2019-03-12T19:58:08.948Z,9.43
2019-03-12T20:00:38.658Z,9.80
2019-03-12T20:03:12.099Z,7.80
2019-03-12T20:05:39.267Z,7.60
2019-03-12T20:08:08.634Z,7.87
2019-03-12T20:11:24.480Z,7.60
2019-03-12T20:14:30.397Z,7.20
2019-03-12T20:17:43.917Z,7.30
2019-03-12T20:20:55.750Z,6.90
2019-03-12T20:23:59.122Z,6.60
2019-03-12T20:27:03.878Z,6.40
2019-03-12T20:30:08.366Z,6.30
2019-03-12T20:33:12.856Z,6.40
2019-03-12T20:36:16.837Z,5.80
2019-03-12T20:39:21.664Z,5.73
2019-03-12T20:42:26.177Z,5.47
2019-03-12T20:46:00.131Z,5.20
2019-03-12T20:49:11.272Z,5.93
2019-03-12T20:52:15.385Z,5.73
2019-03-12T20:55:36.614Z,4.60
2019-03-12T20:58:54.348Z,4.47
2019-03-12T21:02:19.407Z,4.50
2019-03-12T21:05:37.320Z,4.10
2019-03-12T21:08:49.747Z,4.33
2019-03-12T21:12:13.757Z,4.30
2019-03-12T21:15:14.309Z,3.83
2019-03-12T21:18:21.671Z,4.40
2019-03-12T21:21:25.288Z,3.87
2019-03-12T21:24:07.715Z,4.33
2019-03-12T21:27:29.610Z,4.00
2019-03-12T21:29:57.166Z,3.93
2019-03-12T21:32:26.481Z,3.17
2019-03-12T21:34:55.822Z,3.37
2019-03-12T21:37:25.162Z,3.63
2019-03-12T21:39:56.161Z,4.20
2019-03-12T21:42:25.924Z,4.63
2019-03-12T21:44:55.328Z,4.90
2019-03-12T21:47:24.681Z,4.90
2019-03-12T21:49:53.974Z,5.03
2019-03-12T21:52:23.362Z,5.13
2019-03-12T21:54:52.684Z,5.60
2019-03-12T21:57:21.940Z,6.00
2019-03-12T21:59:51.229Z,5.57
2019-03-12T22:02:20.590Z,5.73
2019-03-12T22:04:49.869Z,5.77
2019-03-12T22:07:19.149Z,5.87
2019-03-12T22:09:48.422Z,6.07
2019-03-12T22:12:17.799Z,5.77
2019-03-12T22:14:47.064Z,5.87
2019-03-12T22:17:16.403Z,6.07
2019-03-12T22:19:45.709Z,6.80
2019-03-12T22:22:23.927Z,6.60
2019-03-12T22:24:53.278Z,6.00
2019-03-12T22:27:22.594Z,6.37
2019-03-12T22:29:52.069Z,6.53
2019-03-12T22:32:21.329Z,5.83
2019-03-12T22:34:50.621Z,6.20
2019-03-12T22:37:19.939Z,6.73
2019-03-12T22:39:49.256Z,6.90
2019-03-12T22:42:18.541Z,6.33
2019-03-12T22:44:47.956Z,6.43
2019-03-12T22:47:17.257Z,6.67
2019-03-12T22:49:46.560Z,6.70
2019-03-12T22:52:15.910Z,7.07
2019-03-12T22:54:45.271Z,6.73
2019-03-12T22:57:14.567Z,6.70
2019-03-12T22:59:43.881Z,6.43
2019-03-12T23:02:13.191Z,6.83
2019-03-12T23:04:42.511Z,6.10
2019-03-12T23:07:11.758Z,6.57
2019-03-12T23:09:41.075Z,7.40
2019-03-12T23:12:10.438Z,6.30
2019-03-12T23:14:39.724Z,7.50
2019-03-12T23:17:09.057Z,7.90
2019-03-12T23:19:39.270Z,7.73
2019-03-12T23:22:08.578Z,7.23
2019-03-12T23:24:37.830Z,8.37
2019-03-12T23:27:07.407Z,8.10
2019-03-12T23:29:36.737Z,8.20
2019-03-12T23:32:06.243Z,8.80
2019-03-12T23:34:35.559Z,7.80
2019-03-12T23:37:04.824Z,8.17
2019-03-12T23:39:34.089Z,7.80
2019-03-12T23:42:03.390Z,8.93
2019-03-12T23:44:32.701Z,8.63
2019-03-12T23:47:02.008Z,8.50
2019-03-12T23:49:32.144Z,8.53
2019-03-12T23:52:01.541Z,9.30
2019-03-12T23:54:31.252Z,9.30
2019-03-12T23:57:00.694Z,9.43
2019-03-12T23:59:30.346Z,9.33
